sensor_id;sensor_type;location;lat;lon;timestamp;pressure;altitude;pressure_sealevel;temperature;humidity
47636;BME280;33364;50.766;15.338;2024-03-06T00:02:06;94937.09;;;4.36;84.75
47636;BME280;33364;50.766;15.338;2024-03-06T00:04:32;94940.78;;;4.40;84.54
47636;BME280;33364;50.766;15.338;2024-03-06T00:06:59;94938.72;;;4.42;84.25
47636;BME280;33364;50.766;15.338;2024-03-06T00:09:25;94942.13;;;4.42;84.48
47636;BME280;33364;50.766;15.338;2024-03-06T00:11:55;94941.56;;;4.40;84.10
47636;BME280;33364;50.766;15.338;2024-03-06T00:14:21;94946.47;;;4.32;84.66
47636;BME280;33364;50.766;15.338;2024-03-06T00:16:48;94948.00;;;4.28;84.96
47636;BME280;33364;50.766;15.338;2024-03-06T00:19:16;94948.47;;;4.24;85.18
47636;BME280;33364;50.766;15.338;2024-03-06T00:21:42;94949.03;;;4.27;84.94
47636;BME280;33364;50.766;15.338;2024-03-06T00:24:08;94944.31;;;4.29;84.83
47636;BME280;33364;50.766;15.338;2024-03-06T00:26:34;94952.66;;;4.25;84.74
47636;BME280;33364;50.766;15.338;2024-03-06T00:28:59;94949.50;;;4.23;84.98
47636;BME280;33364;50.766;15.338;2024-03-06T00:31:25;94950.06;;;4.25;84.88
47636;BME280;33364;50.766;15.338;2024-03-06T00:33:51;94959.09;;;4.18;85.10
47636;BME280;33364;50.766;15.338;2024-03-06T00:36:17;94956.25;;;4.19;85.27
47636;BME280;33364;50.766;15.338;2024-03-06T00:38:42;94955.22;;;4.20;85.22
47636;BME280;33364;50.766;15.338;2024-03-06T00:41:08;94948.53;;;4.08;85.26
47636;BME280;33364;50.766;15.338;2024-03-06T00:43:34;94954.09;;;4.11;85.73
47636;BME280;33364;50.766;15.338;2024-03-06T00:46:00;94955.34;;;4.09;85.34
47636;BME280;33364;50.766;15.338;2024-03-06T00:48:25;94962.66;;;4.07;85.88
47636;BME280;33364;50.766;15.338;2024-03-06T00:50:51;94959.00;;;4.08;85.51
47636;BME280;33364;50.766;15.338;2024-03-06T00:53:17;94958.75;;;4.09;86.03
47636;BME280;33364;50.766;15.338;2024-03-06T00:55:43;94957.44;;;4.07;85.59
47636;BME280;33364;50.766;15.338;2024-03-06T00:58:08;94965.00;;;4.08;85.61
47636;BME280;33364;50.766;15.338;2024-03-06T01:00:34;94966.78;;;4.03;85.67
47636;BME280;33364;50.766;15.338;2024-03-06T01:03:00;94965.50;;;4.05;86.22
47636;BME280;33364;50.766;15.338;2024-03-06T01:05:26;94969.28;;;4.14;86.13
47636;BME280;33364;50.766;15.338;2024-03-06T01:07:52;94976.38;;;4.19;85.60
47636;BME280;33364;50.766;15.338;2024-03-06T01:10:20;94973.22;;;4.17;85.43
47636;BME280;33364;50.766;15.338;2024-03-06T01:12:45;94968.19;;;4.10;85.87
47636;BME280;33364;50.766;15.338;2024-03-06T01:15:11;94967.91;;;4.07;85.66
47636;BME280;33364;50.766;15.338;2024-03-06T01:17:37;94979.09;;;4.07;85.65
47636;BME280;33364;50.766;15.338;2024-03-06T01:20:04;94967.56;;;4.03;86.28
47636;BME280;33364;50.766;15.338;2024-03-06T01:22:35;94968.38;;;4.04;86.19
47636;BME280;33364;50.766;15.338;2024-03-06T01:25:01;94971.28;;;4.07;86.13
47636;BME280;33364;50.766;15.338;2024-03-06T01:27:27;94968.97;;;4.11;85.96
47636;BME280;33364;50.766;15.338;2024-03-06T01:29:53;94974.22;;;4.11;85.93
47636;BME280;33364;50.766;15.338;2024-03-06T01:32:19;94963.44;;;4.07;85.95
47636;BME280;33364;50.766;15.338;2024-03-06T01:34:45;94969.94;;;4.05;85.68
47636;BME280;33364;50.766;15.338;2024-03-06T01:37:10;94975.41;;;4.03;86.17
47636;BME280;33364;50.766;15.338;2024-03-06T01:39:36;94966.84;;;4.08;86.16
47636;BME280;33364;50.766;15.338;2024-03-06T01:42:03;94969.44;;;4.08;86.04
47636;BME280;33364;50.766;15.338;2024-03-06T01:44:29;94970.75;;;4.05;85.58
47636;BME280;33364;50.766;15.338;2024-03-06T01:46:55;94974.94;;;4.06;85.45
47636;BME280;33364;50.766;15.338;2024-03-06T01:49:21;94977.56;;;4.06;85.30
47636;BME280;33364;50.766;15.338;2024-03-06T01:51:55;94978.13;;;3.92;84.75
47636;BME280;33364;50.766;15.338;2024-03-06T01:54:22;94973.34;;;3.83;85.62
47636;BME280;33364;50.766;15.338;2024-03-06T01:56:49;94980.81;;;3.75;85.57
47636;BME280;33364;50.766;15.338;2024-03-06T01:59:17;94975.44;;;3.65;85.35
47636;BME280;33364;50.766;15.338;2024-03-06T02:01:44;94981.94;;;3.62;85.58
47636;BME280;33364;50.766;15.338;2024-03-06T02:04:12;94979.78;;;3.54;85.28
47636;BME280;33364;50.766;15.338;2024-03-06T02:06:41;94981.03;;;3.52;85.52
47636;BME280;33364;50.766;15.338;2024-03-06T02:09:08;94983.56;;;3.47;85.18
47636;BME280;33364;50.766;15.338;2024-03-06T02:11:35;94987.56;;;3.32;84.95
47636;BME280;33364;50.766;15.338;2024-03-06T02:14:02;94996.00;;;3.23;84.60
47636;BME280;33364;50.766;15.338;2024-03-06T02:16:28;94987.16;;;3.24;85.24
47636;BME280;33364;50.766;15.338;2024-03-06T02:18:55;94993.50;;;3.11;84.83
47636;BME280;33364;50.766;15.338;2024-03-06T02:21:23;94992.38;;;3.07;85.14
47636;BME280;33364;50.766;15.338;2024-03-06T02:23:50;94993.41;;;2.89;84.87
47636;BME280;33364;50.766;15.338;2024-03-06T02:26:20;94995.69;;;2.69;85.44
47636;BME280;33364;50.766;15.338;2024-03-06T02:28:56;94994.63;;;2.70;85.60
47636;BME280;33364;50.766;15.338;2024-03-06T02:31:22;94992.38;;;2.74;86.26
47636;BME280;33364;50.766;15.338;2024-03-06T02:33:49;94992.72;;;2.66;85.91
47636;BME280;33364;50.766;15.338;2024-03-06T02:36:16;94999.22;;;2.63;85.83
47636;BME280;33364;50.766;15.338;2024-03-06T02:38:45;95000.84;;;2.52;86.07
47636;BME280;33364;50.766;15.338;2024-03-06T02:41:11;95006.44;;;2.44;86.57
47636;BME280;33364;50.766;15.338;2024-03-06T02:43:39;95008.03;;;2.45;86.60
47636;BME280;33364;50.766;15.338;2024-03-06T02:46:05;95013.19;;;2.29;86.53
47636;BME280;33364;50.766;15.338;2024-03-06T02:48:31;95010.41;;;2.07;86.77
47636;BME280;33364;50.766;15.338;2024-03-06T02:50:57;95009.78;;;2.00;87.02
47636;BME280;33364;50.766;15.338;2024-03-06T02:53:23;95008.38;;;2.09;86.75
47636;BME280;33364;50.766;15.338;2024-03-06T02:55:49;95006.03;;;1.96;87.05
47636;BME280;33364;50.766;15.338;2024-03-06T02:58:15;95012.13;;;2.01;87.63
47636;BME280;33364;50.766;15.338;2024-03-06T03:00:42;95019.16;;;2.01;87.40
47636;BME280;33364;50.766;15.338;2024-03-06T03:03:08;95005.09;;;2.02;87.60
47636;BME280;33364;50.766;15.338;2024-03-06T03:05:35;95010.09;;;2.03;87.42
47636;BME280;33364;50.766;15.338;2024-03-06T03:08:02;95003.28;;;2.02;87.46
47636;BME280;33364;50.766;15.338;2024-03-06T03:10:29;95013.31;;;1.82;86.99
47636;BME280;33364;50.766;15.338;2024-03-06T03:12:55;95016.81;;;1.76;87.22
47636;BME280;33364;50.766;15.338;2024-03-06T03:15:20;95017.97;;;1.68;87.28
47636;BME280;33364;50.766;15.338;2024-03-06T03:17:46;95021.25;;;1.64;87.50
47636;BME280;33364;50.766;15.338;2024-03-06T03:20:13;95020.47;;;1.63;87.00
47636;BME280;33364;50.766;15.338;2024-03-06T03:22:42;95020.47;;;1.63;87.48
47636;BME280;33364;50.766;15.338;2024-03-06T03:25:12;95022.81;;;1.65;88.02
47636;BME280;33364;50.766;15.338;2024-03-06T03:27:41;95030.78;;;1.58;87.25
47636;BME280;33364;50.766;15.338;2024-03-06T03:30:10;95039.03;;;1.55;87.35
47636;BME280;33364;50.766;15.338;2024-03-06T03:32:36;95044.22;;;1.55;87.32
47636;BME280;33364;50.766;15.338;2024-03-06T03:35:06;95039.81;;;1.56;87.01
47636;BME280;33364;50.766;15.338;2024-03-06T03:37:32;95040.28;;;1.53;86.91
47636;BME280;33364;50.766;15.338;2024-03-06T03:39:58;95038.34;;;1.48;86.49
47636;BME280;33364;50.766;15.338;2024-03-06T03:42:24;95037.44;;;1.54;86.92
47636;BME280;33364;50.766;15.338;2024-03-06T03:44:49;95042.53;;;1.61;86.83
47636;BME280;33364;50.766;15.338;2024-03-06T03:47:15;95041.03;;;1.65;86.70
47636;BME280;33364;50.766;15.338;2024-03-06T03:49:41;95038.59;;;1.58;85.85
47636;BME280;33364;50.766;15.338;2024-03-06T03:52:07;95038.91;;;1.62;86.07
47636;BME280;33364;50.766;15.338;2024-03-06T03:54:32;95038.22;;;1.55;85.60
47636;BME280;33364;50.766;15.338;2024-03-06T03:56:58;95043.31;;;1.50;85.92
47636;BME280;33364;50.766;15.338;2024-03-06T03:59:27;95035.63;;;1.43;86.27
47636;BME280;33364;50.766;15.338;2024-03-06T04:01:53;95041.97;;;1.47;86.65
47636;BME280;33364;50.766;15.338;2024-03-06T04:04:19;95044.00;;;1.57;86.68
47636;BME280;33364;50.766;15.338;2024-03-06T04:06:44;95048.88;;;1.42;85.41
47636;BME280;33364;50.766;15.338;2024-03-06T04:09:11;95042.97;;;1.23;85.47
47636;BME280;33364;50.766;15.338;2024-03-06T04:11:37;95049.41;;;1.09;85.69
47636;BME280;33364;50.766;15.338;2024-03-06T04:14:04;95039.66;;;0.93;86.14
47636;BME280;33364;50.766;15.338;2024-03-06T04:16:29;95045.72;;;0.87;86.63
47636;BME280;33364;50.766;15.338;2024-03-06T04:18:55;95045.72;;;0.87;86.74
47636;BME280;33364;50.766;15.338;2024-03-06T04:21:21;95045.31;;;0.90;86.98
47636;BME280;33364;50.766;15.338;2024-03-06T04:23:48;95040.22;;;0.95;87.47
47636;BME280;33364;50.766;15.338;2024-03-06T04:26:14;95045.13;;;1.14;87.78
47636;BME280;33364;50.766;15.338;2024-03-06T04:28:40;95053.47;;;1.05;86.55
47636;BME280;33364;50.766;15.338;2024-03-06T04:31:06;95047.09;;;1.01;86.50
47636;BME280;33364;50.766;15.338;2024-03-06T04:33:32;95047.78;;;0.84;86.56
47636;BME280;33364;50.766;15.338;2024-03-06T04:36:02;95053.41;;;0.81;87.08
47636;BME280;33364;50.766;15.338;2024-03-06T04:38:28;95050.72;;;0.88;87.41
47636;BME280;33364;50.766;15.338;2024-03-06T04:40:55;95053.31;;;0.88;87.21
47636;BME280;33364;50.766;15.338;2024-03-06T04:43:20;95056.69;;;0.77;86.98
47636;BME280;33364;50.766;15.338;2024-03-06T04:45:46;95055.97;;;0.70;87.39
47636;BME280;33364;50.766;15.338;2024-03-06T04:48:12;95051.56;;;0.70;87.74
47636;BME280;33364;50.766;15.338;2024-03-06T04:50:37;95063.09;;;0.74;87.81
47636;BME280;33364;50.766;15.338;2024-03-06T04:53:03;95065.81;;;0.68;87.53
47636;BME280;33364;50.766;15.338;2024-03-06T04:55:29;95064.44;;;0.65;87.69
47636;BME280;33364;50.766;15.338;2024-03-06T04:57:56;95060.94;;;0.71;88.01
47636;BME280;33364;50.766;15.338;2024-03-06T05:00:22;95063.88;;;0.75;87.94
47636;BME280;33364;50.766;15.338;2024-03-06T05:02:48;95065.13;;;0.72;87.82
47636;BME280;33364;50.766;15.338;2024-03-06T05:05:17;95067.53;;;0.74;87.57
47636;BME280;33364;50.766;15.338;2024-03-06T05:07:43;95069.50;;;0.60;86.85
47636;BME280;33364;50.766;15.338;2024-03-06T05:10:09;95067.56;;;0.56;87.42
47636;BME280;33364;50.766;15.338;2024-03-06T05:12:35;95065.41;;;0.53;87.82
47636;BME280;33364;50.766;15.338;2024-03-06T05:15:01;95067.22;;;0.52;88.32
47636;BME280;33364;50.766;15.338;2024-03-06T05:17:26;95071.88;;;0.62;89.07
47636;BME280;33364;50.766;15.338;2024-03-06T05:19:53;95077.75;;;0.69;89.01
47636;BME280;33364;50.766;15.338;2024-03-06T05:22:20;95080.22;;;0.64;88.28
47636;BME280;33364;50.766;15.338;2024-03-06T05:24:46;95076.28;;;0.61;88.22
47636;BME280;33364;50.766;15.338;2024-03-06T05:27:12;95083.16;;;0.56;88.21
47636;BME280;33364;50.766;15.338;2024-03-06T05:29:42;95076.94;;;0.57;88.68
47636;BME280;33364;50.766;15.338;2024-03-06T05:32:09;95072.31;;;0.59;89.20
47636;BME280;33364;50.766;15.338;2024-03-06T05:34:35;95092.72;;;0.73;89.65
47636;BME280;33364;50.766;15.338;2024-03-06T05:37:01;95079.31;;;0.88;90.52
47636;BME280;33364;50.766;15.338;2024-03-06T05:39:27;95083.63;;;1.06;90.66
47636;BME280;33364;50.766;15.338;2024-03-06T05:42:02;95086.84;;;1.19;90.57
47636;BME280;33364;50.766;15.338;2024-03-06T05:44:32;95088.06;;;1.17;90.00
47636;BME280;33364;50.766;15.338;2024-03-06T05:47:02;95086.50;;;1.16;89.94
47636;BME280;33364;50.766;15.338;2024-03-06T05:49:28;95093.75;;;1.25;90.67
47636;BME280;33364;50.766;15.338;2024-03-06T05:51:54;95093.88;;;1.31;90.22
47636;BME280;33364;50.766;15.338;2024-03-06T05:54:21;95104.72;;;1.27;89.81
47636;BME280;33364;50.766;15.338;2024-03-06T05:56:51;95099.38;;;1.22;89.75
47636;BME280;33364;50.766;15.338;2024-03-06T05:59:18;95108.00;;;1.35;90.15
47636;BME280;33364;50.766;15.338;2024-03-06T06:01:44;95105.75;;;1.38;90.26
47636;BME280;33364;50.766;15.338;2024-03-06T06:04:12;95111.41;;;1.35;89.82
47636;BME280;33364;50.766;15.338;2024-03-06T06:06:39;95110.06;;;1.44;90.60
47636;BME280;33364;50.766;15.338;2024-03-06T06:09:04;95118.88;;;1.43;90.10
47636;BME280;33364;50.766;15.338;2024-03-06T06:11:31;95122.53;;;1.42;90.12
47636;BME280;33364;50.766;15.338;2024-03-06T06:13:57;95117.88;;;1.56;90.40
47636;BME280;33364;50.766;15.338;2024-03-06T06:16:22;95121.59;;;1.48;90.18
47636;BME280;33364;50.766;15.338;2024-03-06T06:18:48;95121.50;;;1.55;90.14
47636;BME280;33364;50.766;15.338;2024-03-06T06:21:14;95123.88;;;1.56;90.28
47636;BME280;33364;50.766;15.338;2024-03-06T06:23:39;95131.13;;;1.54;90.26
47636;BME280;33364;50.766;15.338;2024-03-06T06:26:09;95125.13;;;1.54;90.10
47636;BME280;33364;50.766;15.338;2024-03-06T06:28:36;95129.56;;;1.53;90.35
47636;BME280;33364;50.766;15.338;2024-03-06T06:31:03;95134.63;;;1.60;90.25
47636;BME280;33364;50.766;15.338;2024-03-06T06:33:30;95138.34;;;1.64;89.87
47636;BME280;33364;50.766;15.338;2024-03-06T06:35:55;95137.94;;;1.67;89.70
47636;BME280;33364;50.766;15.338;2024-03-06T06:38:21;95136.22;;;1.61;89.81
47636;BME280;33364;50.766;15.338;2024-03-06T06:40:47;95134.06;;;1.69;89.84
47636;BME280;33364;50.766;15.338;2024-03-06T06:43:13;95136.94;;;1.80;89.97
47636;BME280;33364;50.766;15.338;2024-03-06T06:45:39;95130.13;;;1.79;89.55
47636;BME280;33364;50.766;15.338;2024-03-06T06:48:06;95139.97;;;1.77;89.35
47636;BME280;33364;50.766;15.338;2024-03-06T06:50:32;95134.44;;;1.85;89.42
47636;BME280;33364;50.766;15.338;2024-03-06T06:52:59;95138.59;;;1.86;89.29
47636;BME280;33364;50.766;15.338;2024-03-06T06:55:25;95128.06;;;1.92;89.74
47636;BME280;33364;50.766;15.338;2024-03-06T06:57:51;95127.41;;;1.97;89.35
47636;BME280;33364;50.766;15.338;2024-03-06T07:00:17;95125.00;;;2.07;89.42
47636;BME280;33364;50.766;15.338;2024-03-06T07:02:44;95118.88;;;2.13;89.65
47636;BME280;33364;50.766;15.338;2024-03-06T07:05:11;95120.59;;;2.19;89.25
47636;BME280;33364;50.766;15.338;2024-03-06T07:07:37;95127.50;;;2.25;88.92
47636;BME280;33364;50.766;15.338;2024-03-06T07:10:04;95126.91;;;2.35;88.96
47636;BME280;33364;50.766;15.338;2024-03-06T07:12:30;95114.00;;;2.28;88.68
47636;BME280;33364;50.766;15.338;2024-03-06T07:14:56;95119.88;;;2.47;88.69
47636;BME280;33364;50.766;15.338;2024-03-06T07:17:22;95119.13;;;2.63;88.70
47636;BME280;33364;50.766;15.338;2024-03-06T07:19:48;95128.03;;;2.79;88.05
47636;BME280;33364;50.766;15.338;2024-03-06T07:22:14;95130.97;;;2.82;87.65
47636;BME280;33364;50.766;15.338;2024-03-06T07:24:40;95122.44;;;3.15;87.77
47636;BME280;33364;50.766;15.338;2024-03-06T07:27:07;95123.88;;;3.39;86.88
47636;BME280;33364;50.766;15.338;2024-03-06T07:29:34;95130.56;;;3.64;85.92
47636;BME280;33364;50.766;15.338;2024-03-06T07:32:01;95131.66;;;3.68;85.55
47636;BME280;33364;50.766;15.338;2024-03-06T07:34:26;95129.75;;;3.80;84.92
47636;BME280;33364;50.766;15.338;2024-03-06T07:36:53;95118.66;;;4.06;84.66
47636;BME280;33364;50.766;15.338;2024-03-06T07:39:19;95124.16;;;4.27;83.49
47636;BME280;33364;50.766;15.338;2024-03-06T07:41:46;95132.81;;;4.49;82.47
47636;BME280;33364;50.766;15.338;2024-03-06T07:44:11;95126.00;;;4.70;81.98
47636;BME280;33364;50.766;15.338;2024-03-06T07:46:37;95130.81;;;5.04;82.21
47636;BME280;33364;50.766;15.338;2024-03-06T07:49:04;95135.78;;;5.28;80.66
47636;BME280;33364;50.766;15.338;2024-03-06T07:51:34;95140.09;;;5.71;79.77
47636;BME280;33364;50.766;15.338;2024-03-06T07:54:00;95145.19;;;5.87;76.51
47636;BME280;33364;50.766;15.338;2024-03-06T07:56:26;95149.03;;;6.07;76.41
47636;BME280;33364;50.766;15.338;2024-03-06T07:58:52;95143.22;;;6.47;74.70
47636;BME280;33364;50.766;15.338;2024-03-06T08:01:19;95141.06;;;6.33;73.38
47636;BME280;33364;50.766;15.338;2024-03-06T08:03:46;95143.91;;;6.84;73.81
47636;BME280;33364;50.766;15.338;2024-03-06T08:06:12;95136.38;;;7.03;74.07
47636;BME280;33364;50.766;15.338;2024-03-06T08:08:42;95140.41;;;7.46;71.43
47636;BME280;33364;50.766;15.338;2024-03-06T08:11:15;95142.00;;;7.57;68.07
47636;BME280;33364;50.766;15.338;2024-03-06T08:13:41;95145.94;;;7.90;65.92
47636;BME280;33364;50.766;15.338;2024-03-06T08:16:07;95143.06;;;7.96;65.05
47636;BME280;33364;50.766;15.338;2024-03-06T08:18:34;95140.13;;;8.43;65.00
47636;BME280;33364;50.766;15.338;2024-03-06T08:21:00;95142.25;;;8.31;62.55
47636;BME280;33364;50.766;15.338;2024-03-06T08:23:27;95146.88;;;8.80;61.43
47636;BME280;33364;50.766;15.338;2024-03-06T08:25:52;95143.47;;;8.74;61.96
47636;BME280;33364;50.766;15.338;2024-03-06T08:28:18;95149.34;;;8.36;57.74
47636;BME280;33364;50.766;15.338;2024-03-06T08:30:44;95151.97;;;8.51;55.55
47636;BME280;33364;50.766;15.338;2024-03-06T08:33:11;95153.28;;;8.48;55.28
47636;BME280;33364;50.766;15.338;2024-03-06T08:35:36;95154.34;;;8.32;53.67
47636;BME280;33364;50.766;15.338;2024-03-06T08:38:02;95166.41;;;8.54;52.66
47636;BME280;33364;50.766;15.338;2024-03-06T08:40:29;95163.94;;;8.93;52.05
47636;BME280;33364;50.766;15.338;2024-03-06T08:42:55;95162.09;;;8.98;53.60
47636;BME280;33364;50.766;15.338;2024-03-06T08:45:22;95162.84;;;9.53;53.38
47636;BME280;33364;50.766;15.338;2024-03-06T08:47:48;95183.66;;;9.00;52.78
47636;BME280;33364;50.766;15.338;2024-03-06T08:50:14;95168.78;;;8.65;53.05
47636;BME280;33364;50.766;15.338;2024-03-06T08:52:40;95174.69;;;9.06;54.30
47636;BME280;33364;50.766;15.338;2024-03-06T08:55:06;95177.53;;;9.20;51.94
47636;BME280;33364;50.766;15.338;2024-03-06T08:57:33;95174.22;;;9.43;52.18
47636;BME280;33364;50.766;15.338;2024-03-06T09:00:03;95187.63;;;9.52;51.61
47636;BME280;33364;50.766;15.338;2024-03-06T09:02:29;95189.50;;;8.87;51.89
47636;BME280;33364;50.766;15.338;2024-03-06T09:04:54;95181.69;;;9.26;51.69
47636;BME280;33364;50.766;15.338;2024-03-06T09:07:20;95179.03;;;9.31;50.47
47636;BME280;33364;50.766;15.338;2024-03-06T09:09:50;95186.66;;;9.38;51.84
47636;BME280;33364;50.766;15.338;2024-03-06T09:12:17;95187.91;;;8.91;51.46
47636;BME280;33364;50.766;15.338;2024-03-06T09:14:43;95184.25;;;9.46;52.58
47636;BME280;33364;50.766;15.338;2024-03-06T09:17:10;95181.56;;;9.90;49.52
47636;BME280;33364;50.766;15.338;2024-03-06T09:19:40;95185.75;;;9.96;49.12
47636;BME280;33364;50.766;15.338;2024-03-06T09:22:06;95189.88;;;9.29;51.16
47636;BME280;33364;50.766;15.338;2024-03-06T09:24:32;95190.00;;;9.92;50.04
47636;BME280;33364;50.766;15.338;2024-03-06T09:26:58;95188.88;;;9.64;52.76
47636;BME280;33364;50.766;15.338;2024-03-06T09:29:24;95187.28;;;10.65;52.20
47636;BME280;33364;50.766;15.338;2024-03-06T09:31:50;95198.81;;;10.50;50.50
47636;BME280;33364;50.766;15.338;2024-03-06T09:34:16;95191.13;;;10.25;51.20
47636;BME280;33364;50.766;15.338;2024-03-06T09:36:46;95190.44;;;9.65;53.04
47636;BME280;33364;50.766;15.338;2024-03-06T09:39:13;95201.25;;;9.64;52.09
47636;BME280;33364;50.766;15.338;2024-03-06T09:41:43;95201.31;;;9.00;54.33
47636;BME280;33364;50.766;15.338;2024-03-06T09:44:11;95205.91;;;8.48;55.76
47636;BME280;33364;50.766;15.338;2024-03-06T09:46:36;95189.34;;;8.23;57.12
47636;BME280;33364;50.766;15.338;2024-03-06T09:49:02;95195.13;;;8.04;57.06
47636;BME280;33364;50.766;15.338;2024-03-06T09:51:28;95196.19;;;8.39;57.34
47636;BME280;33364;50.766;15.338;2024-03-06T09:53:54;95213.56;;;8.30;56.02
47636;BME280;33364;50.766;15.338;2024-03-06T09:56:20;95215.09;;;8.00;56.95
47636;BME280;33364;50.766;15.338;2024-03-06T09:58:46;95210.38;;;8.58;55.94
47636;BME280;33364;50.766;15.338;2024-03-06T10:01:15;95206.41;;;8.66;55.97
47636;BME280;33364;50.766;15.338;2024-03-06T10:03:42;95201.69;;;8.53;56.32
47636;BME280;33364;50.766;15.338;2024-03-06T10:06:08;95201.06;;;8.96;54.89
47636;BME280;33364;50.766;15.338;2024-03-06T10:08:34;95199.00;;;9.42;54.53
47636;BME280;33364;50.766;15.338;2024-03-06T10:11:00;95201.53;;;9.67;49.96
47636;BME280;33364;50.766;15.338;2024-03-06T10:13:26;95206.31;;;9.60;46.26
47636;BME280;33364;50.766;15.338;2024-03-06T10:16:03;95209.66;;;9.71;46.66
47636;BME280;33364;50.766;15.338;2024-03-06T10:18:30;95208.06;;;10.48;45.89
47636;BME280;33364;50.766;15.338;2024-03-06T10:20:57;95214.75;;;10.64;44.89
47636;BME280;33364;50.766;15.338;2024-03-06T10:23:23;95220.19;;;10.49;45.29
47636;BME280;33364;50.766;15.338;2024-03-06T10:25:50;95214.31;;;10.28;45.59
47636;BME280;33364;50.766;15.338;2024-03-06T10:28:19;95217.25;;;10.22;45.93
47636;BME280;33364;50.766;15.338;2024-03-06T10:30:45;95221.41;;;10.85;46.37
47636;BME280;33364;50.766;15.338;2024-03-06T10:33:13;95218.34;;;11.26;44.19
47636;BME280;33364;50.766;15.338;2024-03-06T10:35:43;95211.94;;;11.08;44.85
47636;BME280;33364;50.766;15.338;2024-03-06T10:38:10;95223.94;;;11.43;41.71
47636;BME280;33364;50.766;15.338;2024-03-06T10:40:38;95227.03;;;11.50;42.83
47636;BME280;33364;50.766;15.338;2024-03-06T10:43:05;95236.69;;;10.36;41.27
47636;BME280;33364;50.766;15.338;2024-03-06T10:45:42;95224.16;;;10.18;44.33
47636;BME280;33364;50.766;15.338;2024-03-06T10:48:14;95221.34;;;10.38;44.27
47636;BME280;33364;50.766;15.338;2024-03-06T10:50:40;95220.09;;;10.88;41.82
47636;BME280;33364;50.766;15.338;2024-03-06T10:53:10;95218.25;;;9.92;41.79
47636;BME280;33364;50.766;15.338;2024-03-06T10:55:37;95214.38;;;10.52;41.81
47636;BME280;33364;50.766;15.338;2024-03-06T10:58:05;95215.88;;;10.58;41.91
47636;BME280;33364;50.766;15.338;2024-03-06T11:00:45;95215.66;;;10.83;42.20
47636;BME280;33364;50.766;15.338;2024-03-06T11:03:15;95199.03;;;9.86;42.92
47636;BME280;33364;50.766;15.338;2024-03-06T11:05:42;95201.97;;;9.80;42.71
47636;BME280;33364;50.766;15.338;2024-03-06T11:08:09;95207.31;;;10.08;43.42
47636;BME280;33364;50.766;15.338;2024-03-06T11:10:38;95203.66;;;9.99;44.15
47636;BME280;33364;50.766;15.338;2024-03-06T11:13:20;95205.25;;;10.63;44.78
47636;BME280;33364;50.766;15.338;2024-03-06T11:15:47;95204.34;;;10.78;44.55
47636;BME280;33364;50.766;15.338;2024-03-06T11:23:32;95197.31;;;9.66;46.22
47636;BME280;33364;50.766;15.338;2024-03-06T11:26:05;95196.75;;;10.08;46.67
47636;BME280;33364;50.766;15.338;2024-03-06T11:28:35;95204.22;;;9.96;45.69
47636;BME280;33364;50.766;15.338;2024-03-06T11:33:41;95203.03;;;10.18;44.21
47636;BME280;33364;50.766;15.338;2024-03-06T11:36:20;95196.56;;;10.34;44.98
47636;BME280;33364;50.766;15.338;2024-03-06T11:39:00;95186.00;;;10.34;46.71
47636;BME280;33364;50.766;15.338;2024-03-06T11:41:46;95192.31;;;10.38;46.79
47636;BME280;33364;50.766;15.338;2024-03-06T11:44:15;95195.31;;;10.55;46.74
47636;BME280;33364;50.766;15.338;2024-03-06T11:46:45;95197.47;;;10.77;45.79
47636;BME280;33364;50.766;15.338;2024-03-06T11:49:16;95194.69;;;10.92;45.13
47636;BME280;33364;50.766;15.338;2024-03-06T11:51:52;95190.81;;;10.55;45.15
47636;BME280;33364;50.766;15.338;2024-03-06T11:54:22;95204.31;;;10.54;45.37
47636;BME280;33364;50.766;15.338;2024-03-06T11:56:57;95187.22;;;10.12;46.37
47636;BME280;33364;50.766;15.338;2024-03-06T11:59:24;95200.09;;;10.53;46.68
47636;BME280;33364;50.766;15.338;2024-03-06T12:01:53;95200.13;;;10.48;47.10
47636;BME280;33364;50.766;15.338;2024-03-06T12:04:24;95206.69;;;10.22;45.54
47636;BME280;33364;50.766;15.338;2024-03-06T12:06:50;95204.66;;;10.08;45.80
47636;BME280;33364;50.766;15.338;2024-03-06T12:09:16;95199.41;;;10.08;45.90
47636;BME280;33364;50.766;15.338;2024-03-06T12:11:42;95189.84;;;10.12;46.21
47636;BME280;33364;50.766;15.338;2024-03-06T12:14:17;95197.28;;;10.05;46.74
47636;BME280;33364;50.766;15.338;2024-03-06T12:16:44;95184.69;;;10.31;46.84
47636;BME280;33364;50.766;15.338;2024-03-06T12:19:09;95200.22;;;10.04;47.26
47636;BME280;33364;50.766;15.338;2024-03-06T12:21:35;95196.66;;;10.24;47.53
47636;BME280;33364;50.766;15.338;2024-03-06T12:26:30;95200.25;;;9.60;45.67
47636;BME280;33364;50.766;15.338;2024-03-06T12:29:09;95184.72;;;9.53;46.24
47636;BME280;33364;50.766;15.338;2024-03-06T12:31:38;95186.00;;;9.61;46.82
47636;BME280;33364;50.766;15.338;2024-03-06T12:34:05;95191.06;;;9.91;45.63
47636;BME280;33364;50.766;15.338;2024-03-06T12:36:32;95191.88;;;9.48;47.24
47636;BME280;33364;50.766;15.338;2024-03-06T12:39:03;95191.22;;;9.71;47.18
47636;BME280;33364;50.766;15.338;2024-03-06T12:41:29;95180.44;;;9.67;47.57
47636;BME280;33364;50.766;15.338;2024-03-06T12:43:55;95189.00;;;10.22;46.16
47636;BME280;33364;50.766;15.338;2024-03-06T12:46:22;95186.94;;;10.48;46.29
47636;BME280;33364;50.766;15.338;2024-03-06T12:48:48;95196.69;;;10.76;45.42
47636;BME280;33364;50.766;15.338;2024-03-06T12:51:14;95186.91;;;10.77;46.04
47636;BME280;33364;50.766;15.338;2024-03-06T12:53:39;95190.72;;;10.89;45.58
47636;BME280;33364;50.766;15.338;2024-03-06T12:56:07;95197.03;;;10.93;46.02
47636;BME280;33364;50.766;15.338;2024-03-06T12:58:33;95198.84;;;10.45;46.01
47636;BME280;33364;50.766;15.338;2024-03-06T13:01:00;95204.63;;;10.13;44.44
47636;BME280;33364;50.766;15.338;2024-03-06T13:03:27;95192.03;;;9.17;47.07
47636;BME280;33364;50.766;15.338;2024-03-06T13:05:53;95190.66;;;9.74;45.24
47636;BME280;33364;50.766;15.338;2024-03-06T13:08:19;95190.50;;;9.94;46.12